Time,TemperatureF,DewpointF,PressureIn,WindDirection,WindDirectionDegrees,WindSpeedMPH,WindSpeedGustMPH,Humidity,HourlyPrecipIn,Conditions,Clouds,dailyrainin,SolarRadiationWatts/m^2,SoftwareType,DateUTC
2013-05-10 00:05:00,32.4,28.0,30.00,North,355,0.0,0.0,82,0.00,,,0.00,0,weatherlink.com 1.10,2013-05-10 06:05:00,
2013-05-10 00:20:00,31.5,27.0,30.00,North,360,0.0,0.0,83,0.00,,,0.00,0,weatherlink.com 1.10,2013-05-10 06:20:00,
2013-05-10 00:35:00,30.7,26.0,30.01,North,360,0.0,0.0,84,0.00,,,0.00,0,weatherlink.com 1.10,2013-05-10 06:35:00,
2013-05-10 00:50:00,31.1,27.0,30.01,North,360,0.0,0.0,84,0.00,,,0.00,0,weatherlink.com 1.10,2013-05-10 06:50:00,
2013-05-10 01:05:00,31.4,27.0,30.01,North,360,0.0,0.0,84,0.00,,,0.00,0,weatherlink.com 1.10,2013-05-10 07:05:00,
2013-05-10 01:20:00,32.2,28.0,30.01,North,360,0.0,0.0,83,0.00,,,0.00,0,weatherlink.com 1.10,2013-05-10 07:20:00,
2013-05-10 01:35:00,32.6,27.0,30.01,North,355,0.0,0.0,81,0.00,,,0.00,0,weatherlink.com 1.10,2013-05-10 07:35:00,
2013-05-10 01:50:00,31.9,28.0,30.02,North,355,0.0,0.0,86,0.00,,,0.00,0,weatherlink.com 1.10,2013-05-10 07:50:00,
2013-05-10 02:05:00,31.6,28.0,30.01,North,355,0.0,0.0,85,0.00,,,0.00,0,weatherlink.com 1.10,2013-05-10 08:05:00,
2013-05-10 02:20:00,31.6,27.0,30.01,North,355,0.0,0.0,84,0.00,,,0.00,0,weatherlink.com 1.10,2013-05-10 08:20:00,
2013-05-10 02:35:00,32.0,28.0,30.00,North,355,0.0,0.0,84,0.00,,,0.00,0,weatherlink.com 1.10,2013-05-10 08:35:00,
2013-05-10 02:50:00,32.0,27.0,30.00,North,355,0.0,0.0,83,0.00,,,0.00,0,weatherlink.com 1.10,2013-05-10 08:50:00,
2013-05-10 03:05:00,31.9,28.0,30.00,North,355,0.0,0.0,84,0.00,,,0.00,0,weatherlink.com 1.10,2013-05-10 09:05:00,
2013-05-10 03:20:00,31.7,28.0,30.01,North,355,0.0,0.0,85,0.00,,,0.00,0,weatherlink.com 1.10,2013-05-10 09:20:00,
2013-05-10 03:35:00,31.4,27.0,30.01,North,355,0.0,0.0,85,0.00,,,0.00,0,weatherlink.com 1.10,2013-05-10 09:35:00,
2013-05-10 03:50:00,31.8,28.0,30.01,North,355,0.0,0.0,85,0.00,,,0.00,0,weatherlink.com 1.10,2013-05-10 09:50:00,
2013-05-10 04:05:00,32.2,28.0,30.01,North,355,0.0,0.0,85,0.00,,,0.00,0,weatherlink.com 1.10,2013-05-10 10:05:00,
2013-05-10 04:20:00,32.4,28.0,30.01,North,355,0.0,0.0,85,0.00,,,0.00,0,weatherlink.com 1.10,2013-05-10 10:20:00,
2013-05-10 04:35:00,32.2,28.0,30.01,North,355,0.0,0.0,84,0.00,,,0.00,0,weatherlink.com 1.10,2013-05-10 10:35:00,
2013-05-10 04:50:00,32.0,28.0,30.01,North,355,0.0,0.0,85,0.00,,,0.00,0,weatherlink.com 1.10,2013-05-10 10:50:00,
2013-05-10 05:05:00,31.6,28.0,30.01,North,355,0.0,0.0,85,0.00,,,0.00,0,weatherlink.com 1.10,2013-05-10 11:05:00,
2013-05-10 05:20:00,31.5,28.0,30.01,North,355,0.0,0.0,86,0.00,,,0.00,0,weatherlink.com 1.10,2013-05-10 11:20:00,
2013-05-10 05:35:00,31.4,28.0,30.01,North,355,0.0,0.0,86,0.00,,,0.00,0,weatherlink.com 1.10,2013-05-10 11:35:00,
2013-05-10 05:50:00,31.0,27.0,30.01,North,355,0.0,0.0,86,0.00,,,0.00,0,weatherlink.com 1.10,2013-05-10 11:50:00,
2013-05-10 06:05:00,30.1,27.0,30.02,North,360,0.0,0.0,87,0.00,,,0.00,5,weatherlink.com 1.10,2013-05-10 12:05:00,
2013-05-10 06:20:00,29.7,27.0,30.02,North,360,0.0,0.0,88,0.00,,,0.00,11,weatherlink.com 1.10,2013-05-10 12:20:00,
2013-05-10 06:35:00,29.8,26.0,30.02,North,355,0.0,0.0,87,0.00,,,0.00,14,weatherlink.com 1.10,2013-05-10 12:35:00,
2013-05-10 06:50:00,29.7,27.0,30.03,North,355,0.0,0.0,88,0.00,,,0.00,16,weatherlink.com 1.10,2013-05-10 12:50:00,
2013-05-10 07:05:00,29.8,27.0,30.03,North,355,0.0,0.0,88,0.00,,,0.00,26,weatherlink.com 1.10,2013-05-10 13:05:00,
2013-05-10 07:20:00,30.7,28.0,30.03,North,360,0.0,0.0,88,0.00,,,0.00,35,weatherlink.com 1.10,2013-05-10 13:20:00,
2013-05-10 07:36:00,31.7,28.0,30.03,North,360,0.0,0.0,86,0.00,,,0.00,49,weatherlink.com 1.10,2013-05-10 13:36:00,
2013-05-10 07:51:00,33.4,29.0,30.04,North,360,0.0,0.0,82,0.00,,,0.00,60,weatherlink.com 1.10,2013-05-10 13:51:00,
2013-05-10 08:06:00,34.5,29.0,30.04,North,360,0.0,2.0,80,0.00,,,0.00,69,weatherlink.com 1.10,2013-05-10 14:06:00,
2013-05-10 08:21:00,35.8,30.0,30.04,North,360,0.0,0.0,79,0.00,,,0.00,102,weatherlink.com 1.10,2013-05-10 14:21:00,
2013-05-10 08:36:00,36.5,30.0,30.04,North,360,1.0,2.0,77,0.00,,,0.00,459,weatherlink.com 1.10,2013-05-10 14:36:00,
2013-05-10 08:51:00,38.6,30.0,30.04,North,360,0.0,2.0,70,0.00,,,0.00,457,weatherlink.com 1.10,2013-05-10 14:51:00,
2013-05-10 09:06:00,39.3,30.0,30.04,NNW,333,1.0,2.0,69,0.00,,,0.00,545,weatherlink.com 1.10,2013-05-10 15:06:00,
2013-05-10 09:21:00,41.7,30.0,30.04,WNW,298,1.0,3.0,63,0.00,,,0.00,603,weatherlink.com 1.10,2013-05-10 15:21:00,
2013-05-10 09:36:00,41.8,29.0,30.04,NW,304,1.0,3.0,61,0.00,,,0.00,647,weatherlink.com 1.10,2013-05-10 15:36:00,
2013-05-10 09:51:00,44.7,29.0,30.04,NNW,327,0.0,3.0,55,0.00,,,0.00,721,weatherlink.com 1.10,2013-05-10 15:51:00,
2013-05-10 10:06:00,43.3,28.0,30.04,WNW,300,2.0,3.0,55,0.00,,,0.00,754,weatherlink.com 1.10,2013-05-10 16:06:00,
2013-05-10 10:21:00,46.4,26.0,30.04,North,360,0.0,1.0,45,0.00,,,0.00,860,weatherlink.com 1.10,2013-05-10 16:21:00,
2013-05-10 10:36:00,44.5,25.0,30.04,North,360,2.0,3.0,47,0.00,,,0.00,308,weatherlink.com 1.10,2013-05-10 16:36:00,
2013-05-10 10:51:00,45.3,25.0,30.04,North,360,0.0,1.0,46,0.00,,,0.00,960,weatherlink.com 1.10,2013-05-10 16:51:00,
2013-05-10 11:06:00,45.9,25.0,30.04,North,360,0.0,3.0,44,0.00,,,0.00,163,weatherlink.com 1.10,2013-05-10 17:06:00,
2013-05-10 11:21:00,47.3,24.0,30.04,NW,309,0.0,4.0,41,0.00,,,0.00,981,weatherlink.com 1.10,2013-05-10 17:21:00,
2013-05-10 11:36:00,45.9,23.0,30.05,SSW,211,0.0,4.0,41,0.00,,,0.00,260,weatherlink.com 1.10,2013-05-10 17:36:00,
2013-05-10 11:51:00,48.5,24.0,30.05,ENE,74,1.0,3.0,39,0.00,,,0.00,898,weatherlink.com 1.10,2013-05-10 17:51:00,
2013-05-10 12:06:00,51.0,22.0,30.05,SW,228,0.0,3.0,32,0.00,,,0.00,1049,weatherlink.com 1.10,2013-05-10 18:06:00,
2013-05-10 12:21:00,50.8,24.0,30.05,WNW,293,3.0,5.0,35,0.00,,,0.00,643,weatherlink.com 1.10,2013-05-10 18:21:00,
2013-05-10 12:36:00,50.9,25.0,30.05,ENE,76,5.0,10.0,36,0.00,,,0.00,1172,weatherlink.com 1.10,2013-05-10 18:36:00,
2013-05-10 12:51:00,50.5,27.0,30.05,ESE,103,0.0,5.0,40,0.00,,,0.00,925,weatherlink.com 1.10,2013-05-10 18:51:00,
2013-05-10 13:07:00,43.1,30.0,30.06,NE,41,1.0,9.0,61,0.00,,,0.00,95,weatherlink.com 1.10,2013-05-10 19:07:00,
2013-05-10 13:22:00,38.7,30.0,30.05,North,360,0.0,3.0,72,0.00,,,0.00,301,weatherlink.com 1.10,2013-05-10 19:22:00,
2013-05-10 13:37:00,46.7,32.0,30.05,NNW,348,3.0,7.0,56,0.01,,,0.01,1088,weatherlink.com 1.10,2013-05-10 19:37:00,
2013-05-10 13:52:00,47.7,30.0,30.04,East,94,2.0,6.0,51,0.01,,,0.01,1069,weatherlink.com 1.10,2013-05-10 19:52:00,
2013-05-10 14:07:00,49.8,30.0,30.04,ESE,108,2.0,9.0,47,0.01,,,0.01,1053,weatherlink.com 1.10,2013-05-10 20:07:00,
2013-05-10 14:22:00,50.6,30.0,30.04,North,360,3.0,7.0,46,0.01,,,0.01,1065,weatherlink.com 1.10,2013-05-10 20:22:00,
2013-05-10 14:37:00,51.1,29.0,30.03,North,360,1.0,4.0,43,0.00,,,0.01,995,weatherlink.com 1.10,2013-05-10 20:37:00,
2013-05-10 14:52:00,52.1,29.0,30.03,ENE,61,0.0,4.0,41,0.00,,,0.01,350,weatherlink.com 1.10,2013-05-10 20:52:00,
2013-05-10 15:07:00,53.0,30.0,30.03,ESE,116,2.0,6.0,41,0.00,,,0.01,1053,weatherlink.com 1.10,2013-05-10 21:07:00,
2013-05-10 15:22:00,53.6,30.0,30.03,NE,55,1.0,5.0,40,0.00,,,0.01,928,weatherlink.com 1.10,2013-05-10 21:22:00,
2013-05-10 15:37:00,50.7,25.0,30.03,North,360,1.0,7.0,37,0.00,,,0.01,223,weatherlink.com 1.10,2013-05-10 21:37:00,
2013-05-10 15:52:00,49.2,26.0,30.03,North,360,0.0,5.0,40,0.00,,,0.01,383,weatherlink.com 1.10,2013-05-10 21:52:00,
2013-05-10 16:07:00,46.0,27.0,30.04,East,94,1.0,15.0,48,0.00,,,0.01,83,weatherlink.com 1.10,2013-05-10 22:07:00,
2013-05-10 16:22:00,44.3,27.0,30.04,North,360,1.0,6.0,50,0.00,,,0.01,120,weatherlink.com 1.10,2013-05-10 22:22:00,
2013-05-10 16:37:00,48.8,27.0,30.03,South,173,3.0,6.0,43,0.00,,,0.01,719,weatherlink.com 1.10,2013-05-10 22:37:00,
2013-05-10 16:52:00,49.6,27.0,30.03,ENE,68,1.0,5.0,42,0.00,,,0.01,450,weatherlink.com 1.10,2013-05-10 22:52:00,
2013-05-10 17:07:00,47.4,25.0,30.04,ESE,103,2.0,5.0,42,0.00,,,0.01,90,weatherlink.com 1.10,2013-05-10 23:07:00,
2013-05-10 17:22:00,47.6,26.0,30.04,NW,319,0.0,5.0,44,0.00,,,0.01,257,weatherlink.com 1.10,2013-05-10 23:22:00,
2013-05-10 17:37:00,45.5,28.0,30.05,ESE,102,2.0,8.0,50,0.00,,,0.01,63,weatherlink.com 1.10,2013-05-10 23:37:00,
2013-05-10 18:07:00,44.4,26.0,30.06,North,360,1.0,6.0,49,0.00,,,0.01,123,weatherlink.com 1.10,2013-05-11 00:07:00,
2013-05-10 18:22:00,45.1,27.0,30.06,NE,38,3.0,4.0,50,0.00,,,0.01,65,weatherlink.com 1.10,2013-05-11 00:22:00,
2013-05-10 18:37:00,43.4,28.0,30.07,North,360,2.0,7.0,56,0.00,,,0.01,65,weatherlink.com 1.10,2013-05-11 00:37:00,
2013-05-10 18:52:00,43.9,28.0,30.07,North,360,2.0,5.0,55,0.00,,,0.01,63,weatherlink.com 1.10,2013-05-11 00:52:00,
2013-05-10 19:07:00,43.2,28.0,30.07,North,360,0.0,3.0,56,0.00,,,0.01,21,weatherlink.com 1.10,2013-05-11 01:07:00,
2013-05-10 19:22:00,42.7,28.0,30.08,North,360,2.0,4.0,56,0.00,,,0.01,19,weatherlink.com 1.10,2013-05-11 01:22:00,
2013-05-10 19:37:00,42.3,28.0,30.08,North,360,1.0,3.0,57,0.00,,,0.01,11,weatherlink.com 1.10,2013-05-11 01:37:00,
2013-05-10 19:52:00,41.5,28.0,30.10,North,360,0.0,3.0,59,0.00,,,0.01,0,weatherlink.com 1.10,2013-05-11 01:52:00,
2013-05-10 20:07:00,41.2,29.0,30.11,North,360,0.0,2.0,61,0.00,,,0.01,0,weatherlink.com 1.10,2013-05-11 02:07:00,
2013-05-10 20:22:00,41.0,29.0,30.11,North,360,1.0,4.0,63,0.00,,,0.01,0,weatherlink.com 1.10,2013-05-11 02:22:00,
2013-05-10 20:37:00,40.5,29.0,30.12,North,360,2.0,9.0,64,0.00,,,0.01,0,weatherlink.com 1.10,2013-05-11 02:37:00,
2013-05-10 20:52:00,40.2,29.0,30.12,North,360,0.0,4.0,64,0.00,,,0.01,0,weatherlink.com 1.10,2013-05-11 02:52:00,
2013-05-10 21:07:00,40.4,29.0,30.14,North,360,0.0,2.0,63,0.00,,,0.01,0,weatherlink.com 1.10,2013-05-11 03:07:00,
2013-05-10 21:22:00,39.5,30.0,30.16,North,360,0.0,8.0,70,0.00,,,0.01,0,weatherlink.com 1.10,2013-05-11 03:22:00,
2013-05-10 21:37:00,37.1,32.0,30.16,North,360,1.0,4.0,81,0.00,,,0.01,0,weatherlink.com 1.10,2013-05-11 03:37:00,
2013-05-10 21:52:00,36.2,33.0,30.16,North,360,0.0,0.0,87,0.00,,,0.01,0,weatherlink.com 1.10,2013-05-11 03:52:00,
2013-05-10 22:07:00,36.7,33.0,30.16,North,360,0.0,1.0,85,0.00,,,0.01,0,weatherlink.com 1.10,2013-05-11 04:07:00,
2013-05-10 22:22:00,37.1,32.0,30.17,North,360,0.0,0.0,82,0.00,,,0.01,0,weatherlink.com 1.10,2013-05-11 04:22:00,
2013-05-10 22:37:00,37.3,32.0,30.18,North,360,0.0,0.0,80,0.00,,,0.01,0,weatherlink.com 1.10,2013-05-11 04:37:00,
2013-05-10 22:52:00,37.1,32.0,30.17,North,360,0.0,1.0,81,0.00,,,0.01,0,weatherlink.com 1.10,2013-05-11 04:52:00,
2013-05-10 23:07:00,37.1,31.0,30.17,North,360,0.0,1.0,80,0.00,,,0.01,0,weatherlink.com 1.10,2013-05-11 05:07:00,
2013-05-10 23:22:00,35.3,31.0,30.17,North,360,0.0,1.0,84,0.00,,,0.01,0,weatherlink.com 1.10,2013-05-11 05:22:00,
2013-05-10 23:37:00,34.2,30.0,30.18,NE,55,0.0,0.0,85,0.00,,,0.01,0,weatherlink.com 1.10,2013-05-11 05:37:00,
2013-05-10 23:52:00,33.5,30.0,30.18,North,360,0.0,1.0,86,0.00,,,0.01,0,weatherlink.com 1.10,2013-05-11 05:52:00,